Time;durP1;ratioP1;P1;durP2;ratioP2;P2;SDS_P1;SDS_P2;PMS_P1;PMS_P2;Temp;Humidity;BMP_temperature;BMP_pressure;BME280_temperature;BME280_humidity;BME280_pressure;Samples;Min_cycle;Max_cycle;Signal;HPM_P1;HPM_P2
2022/10/25 00:01:47;;;;;;;;;1.50;0.00;;;;;;;;5044015;28;61765;-80
2022/10/25 00:04:12;;;;;;;;;2.00;0.00;;;;;;;;5043704;28;62880;-79
2022/10/25 00:06:37;;;;;;;;;0.00;0.00;;;;;;;;5044001;28;61859;-80
2022/10/25 00:09:03;;;;;;;;;0.00;0.00;;;;;;;;5044631;28;62110;-80
2022/10/25 00:11:29;;;;;;;;;0.00;0.00;;;;;;;;5045875;28;62119;-79
2022/10/25 00:13:56;;;;;;;;;0.00;0.00;;;;;;;;5063769;28;61945;-80
2022/10/25 00:16:23;;;;;;;;;1.00;1.00;;;;;;;;5063860;28;61911;-80
2022/10/25 00:18:48;;;;;;;;;0.75;0.00;;;;;;;;5045396;28;61759;-79
2022/10/25 00:21:13;;;;;;;;;1.25;1.00;;;;;;;;5045899;28;61971;-79
2022/10/25 00:23:38;;;;;;;;;0.00;0.00;;;;;;;;5045025;28;64477;-80
2022/10/25 00:26:05;;;;;;;;;0.00;0.00;;;;;;;;5063912;28;61738;-80
2022/10/25 00:28:30;;;;;;;;;1.00;0.00;;;;;;;;5063955;28;61845;-81
2022/10/25 00:30:59;;;;;;;;;0.00;0.00;;;;;;;;5045714;28;61853;-79
2022/10/25 00:33:24;;;;;;;;;0.75;0.75;;;;;;;;5045180;28;63952;-79
2022/10/25 00:35:50;;;;;;;;;2.00;0.00;;;;;;;;5063202;28;62151;-79
2022/10/25 00:38:15;;;;;;;;;1.00;0.00;;;;;;;;5063778;28;61723;-80
2022/10/25 00:40:40;;;;;;;;;0.00;0.00;;;;;;;;5063549;28;61753;-79
2022/10/25 00:43:07;;;;;;;;;1.25;0.00;;;;;;;;5063087;28;62825;-80
2022/10/25 00:45:32;;;;;;;;;1.00;0.00;;;;;;;;5063321;28;62374;-79
2022/10/25 00:48:01;;;;;;;;;0.25;0.25;;;;;;;;5063402;28;61921;-80
2022/10/25 00:50:47;;;;;;;;;0.50;0.50;;;;;;;;5063399;28;62051;-79
2022/10/25 00:53:19;;;;;;;;;0.75;0.75;;;;;;;;5044585;28;64767;-79
2022/10/25 00:55:47;;;;;;;;;1.00;0.00;;;;;;;;5062538;28;61778;-79
2022/10/25 00:58:15;;;;;;;;;3.50;0.00;;;;;;;;5045102;28;61857;-79
2022/10/25 01:00:40;;;;;;;;;2.00;0.00;;;;;;;;5063141;28;61850;-79
2022/10/25 01:03:05;;;;;;;;;2.00;1.00;;;;;;;;5062624;28;61738;-80
2022/10/25 01:05:32;;;;;;;;;0.00;0.00;;;;;;;;5063069;28;61917;-79
2022/10/25 01:07:57;;;;;;;;;0.00;0.00;;;;;;;;5063257;28;61693;-79
2022/10/25 01:10:22;;;;;;;;;1.50;0.00;;;;;;;;5035914;28;61896;-79
2022/10/25 01:12:47;;;;;;;;;0.00;0.00;;;;;;;;5024156;28;65247;-80
2022/10/25 01:15:13;;;;;;;;;0.75;0.75;;;;;;;;5042929;28;61934;-80
2022/10/25 01:17:46;;;;;;;;;0.50;0.00;;;;;;;;5024447;28;62722;-80
2022/10/25 01:20:30;;;;;;;;;0.00;0.00;;;;;;;;5024959;28;62084;-79
2022/10/25 01:23:04;;;;;;;;;1.50;0.75;;;;;;;;5042174;28;61753;-79
2022/10/25 01:25:30;;;;;;;;;0.00;0.00;;;;;;;;5024429;28;62237;-79
2022/10/25 01:28:13;;;;;;;;;1.00;0.00;;;;;;;;5042585;28;62081;-79
2022/10/25 01:30:58;;;;;;;;;1.75;1.00;;;;;;;;5024529;28;62107;-79
2022/10/25 01:33:34;;;;;;;;;0.00;0.00;;;;;;;;5024181;28;63725;-79
2022/10/25 01:35:59;;;;;;;;;1.75;0.75;;;;;;;;5042210;28;61973;-79
2022/10/25 01:38:29;;;;;;;;;0.75;0.75;;;;;;;;5042448;28;61957;-79
2022/10/25 01:41:04;;;;;;;;;2.00;0.25;;;;;;;;5042826;28;61750;-79
2022/10/25 01:43:35;;;;;;;;;1.00;1.00;;;;;;;;5024043;28;63794;-79
2022/10/25 01:46:11;;;;;;;;;2.75;1.00;;;;;;;;5042043;28;61886;-79
2022/10/25 01:48:40;;;;;;;;;1.25;1.00;;;;;;;;5041961;28;61762;-79
2022/10/25 01:51:10;;;;;;;;;0.75;0.00;;;;;;;;5042758;28;61799;-79
2022/10/25 01:53:42;;;;;;;;;0.00;0.00;;;;;;;;5023201;28;63701;-79
2022/10/25 01:56:08;;;;;;;;;3.00;0.00;;;;;;;;5024164;28;61908;-79
2022/10/25 01:58:34;;;;;;;;;1.00;1.00;;;;;;;;5042237;28;62103;-80
2022/10/25 02:01:07;;;;;;;;;1.75;0.00;;;;;;;;5024397;28;61891;-80
2022/10/25 02:03:32;;;;;;;;;0.00;0.00;;;;;;;;5024091;28;64107;-80
2022/10/25 02:06:19;;;;;;;;;2.00;0.00;;;;;;;;5024053;28;61821;-80
2022/10/25 02:09:07;;;;;;;;;0.00;0.00;;;;;;;;5024195;28;61811;-80
2022/10/25 02:11:33;;;;;;;;;0.00;0.00;;;;;;;;5012569;28;61925;-80
2022/10/25 02:14:10;;;;;;;;;2.00;1.00;;;;;;;;5021677;28;62627;-80
2022/10/25 02:16:35;;;;;;;;;2.00;1.00;;;;;;;;5022266;28;61861;-80
2022/10/25 02:19:02;;;;;;;;;0.00;0.00;;;;;;;;5021835;28;61773;-79
2022/10/25 02:21:29;;;;;;;;;0.00;0.00;;;;;;;;5022784;28;61697;-80
2022/10/25 02:23:57;;;;;;;;;1.00;0.00;;;;;;;;5020393;28;61855;-79
2022/10/25 02:26:23;;;;;;;;;1.75;0.00;;;;;;;;5022251;28;61773;-80
2022/10/25 02:28:49;;;;;;;;;0.00;0.00;;;;;;;;5022215;28;62240;-79
2022/10/25 02:31:16;;;;;;;;;1.00;0.00;;;;;;;;5022376;28;62150;-79
2022/10/25 02:33:45;;;;;;;;;2.00;0.00;;;;;;;;5021705;28;61898;-79
2022/10/25 02:36:20;;;;;;;;;1.25;0.00;;;;;;;;5022150;28;61882;-80
2022/10/25 02:38:46;;;;;;;;;1.25;0.00;;;;;;;;5022230;28;61844;-80
2022/10/25 02:41:12;;;;;;;;;0.75;0.00;;;;;;;;5022466;28;61744;-79
2022/10/25 02:43:37;;;;;;;;;1.25;0.50;;;;;;;;5020459;28;63972;-80
2022/10/25 02:46:06;;;;;;;;;2.25;0.00;;;;;;;;5021723;28;62505;-79
2022/10/25 02:48:32;;;;;;;;;2.75;0.00;;;;;;;;5021954;28;62274;-79
2022/10/25 02:50:57;;;;;;;;;0.00;0.00;;;;;;;;5021899;28;61955;-79
2022/10/25 02:53:22;;;;;;;;;0.50;0.50;;;;;;;;5020005;28;63638;-79
2022/10/25 02:55:47;;;;;;;;;2.25;0.00;;;;;;;;5021735;28;61677;-79
2022/10/25 02:58:13;;;;;;;;;2.75;0.00;;;;;;;;5021923;28;61923;-80
2022/10/25 03:00:38;;;;;;;;;0.00;0.00;;;;;;;;5022095;28;61982;-80
2022/10/25 03:03:03;;;;;;;;;1.00;0.00;;;;;;;;5021049;28;62089;-80
2022/10/25 03:05:28;;;;;;;;;3.00;2.00;;;;;;;;5020371;28;61800;-79
2022/10/25 03:07:54;;;;;;;;;0.50;0.00;;;;;;;;5021419;28;62129;-79
2022/10/25 03:10:19;;;;;;;;;1.00;0.00;;;;;;;;5040894;28;61741;-80
2022/10/25 03:12:44;;;;;;;;;1.00;0.00;;;;;;;;5061383;28;62303;-80
2022/10/25 03:15:09;;;;;;;;;4.00;2.50;;;;;;;;5061579;28;62233;-80
2022/10/25 03:17:35;;;;;;;;;1.00;0.00;;;;;;;;5043521;28;61815;-79
2022/10/25 03:20:00;;;;;;;;;0.00;0.00;;;;;;;;5042926;28;62045;-79
2022/10/25 03:22:25;;;;;;;;;0.00;0.00;;;;;;;;5061169;28;61746;-80
2022/10/25 03:24:50;;;;;;;;;0.00;0.00;;;;;;;;5061641;28;61874;-80
2022/10/25 03:27:16;;;;;;;;;0.00;0.00;;;;;;;;5061661;28;61959;-80
2022/10/25 03:29:42;;;;;;;;;0.00;0.00;;;;;;;;5061765;28;61756;-80
2022/10/25 03:32:07;;;;;;;;;1.00;0.00;;;;;;;;5060725;28;61969;-80
2022/10/25 03:34:33;;;;;;;;;1.25;0.50;;;;;;;;5044545;28;61889;-79
2022/10/25 03:36:58;;;;;;;;;2.00;1.00;;;;;;;;5046608;28;61993;-80
2022/10/25 03:39:23;;;;;;;;;0.00;0.00;;;;;;;;5047007;28;62137;-79
2022/10/25 03:41:49;;;;;;;;;2.75;0.00;;;;;;;;5064346;28;63018;-79
2022/10/25 03:44:14;;;;;;;;;0.00;0.00;;;;;;;;5064849;28;62036;-80
2022/10/25 03:46:39;;;;;;;;;0.00;0.00;;;;;;;;5064871;28;61844;-80
2022/10/25 03:49:05;;;;;;;;;0.00;0.00;;;;;;;;5064477;28;61950;-79
2022/10/25 03:51:30;;;;;;;;;1.75;1.00;;;;;;;;5064202;28;62661;-79
2022/10/25 03:53:55;;;;;;;;;0.00;0.00;;;;;;;;5064461;28;61702;-79
2022/10/25 03:56:20;;;;;;;;;0.00;0.00;;;;;;;;5064662;28;61903;-80
2022/10/25 03:58:45;;;;;;;;;4.50;0.50;;;;;;;;5065086;28;61857;-80
2022/10/25 04:01:11;;;;;;;;;2.50;0.00;;;;;;;;5045554;28;63606;-80
2022/10/25 04:03:37;;;;;;;;;0.00;0.00;;;;;;;;5064505;28;61793;-79
2022/10/25 04:06:02;;;;;;;;;1.00;1.00;;;;;;;;5064459;28;61981;-79
2022/10/25 04:08:27;;;;;;;;;1.00;0.00;;;;;;;;5064963;28;61681;-80
2022/10/25 04:10:53;;;;;;;;;0.00;0.00;;;;;;;;5032979;28;65065;-79
2022/10/25 04:13:18;;;;;;;;;5.25;1.75;;;;;;;;5044132;28;61929;-80
2022/10/25 04:15:43;;;;;;;;;0.00;0.00;;;;;;;;5044046;28;61812;-79
2022/10/25 04:18:08;;;;;;;;;0.00;0.00;;;;;;;;5044273;28;62160;-80
2022/10/25 04:20:34;;;;;;;;;1.00;1.00;;;;;;;;5025394;28;64872;-80
2022/10/25 04:22:59;;;;;;;;;5.25;0.25;;;;;;;;5044109;28;61795;-80
2022/10/25 04:25:25;;;;;;;;;2.00;0.00;;;;;;;;5044107;28;61832;-80
2022/10/25 04:27:51;;;;;;;;;0.25;0.00;;;;;;;;5044421;28;62049;-80
2022/10/25 04:30:16;;;;;;;;;0.00;0.00;;;;;;;;5043342;28;61882;-80
2022/10/25 04:32:41;;;;;;;;;0.00;0.00;;;;;;;;5025793;28;61815;-79
2022/10/25 04:35:07;;;;;;;;;1.50;0.00;;;;;;;;5025887;28;62087;-79
2022/10/25 04:37:32;;;;;;;;;1.00;1.00;;;;;;;;5026342;28;61845;-81
2022/10/25 04:39:57;;;;;;;;;0.75;0.75;;;;;;;;5043366;28;62961;-80
2022/10/25 04:42:23;;;;;;;;;1.00;0.00;;;;;;;;5025724;28;61858;-80
2022/10/25 04:44:48;;;;;;;;;0.00;0.00;;;;;;;;5026212;28;61819;-80
2022/10/25 04:47:13;;;;;;;;;0.25;0.25;;;;;;;;5042541;28;62106;-79
2022/10/25 04:49:38;;;;;;;;;0.00;0.00;;;;;;;;5042417;28;61880;-79
2022/10/25 04:52:04;;;;;;;;;1.50;0.25;;;;;;;;5043627;28;61846;-80
2022/10/25 04:54:29;;;;;;;;;1.50;1.00;;;;;;;;5025518;28;61857;-80
2022/10/25 04:56:54;;;;;;;;;2.75;0.00;;;;;;;;5025922;28;62202;-79
2022/10/25 04:59:19;;;;;;;;;0.00;0.00;;;;;;;;5042886;28;62204;-79
2022/10/25 05:01:45;;;;;;;;;2.25;1.00;;;;;;;;5025255;28;61838;-79
2022/10/25 05:04:20;;;;;;;;;0.50;0.50;;;;;;;;5043468;28;61810;-80
2022/10/25 05:06:49;;;;;;;;;1.00;1.00;;;;;;;;5043825;28;61653;-80
2022/10/25 05:09:16;;;;;;;;;1.00;1.00;;;;;;;;5026381;28;64356;-79
2022/10/25 05:11:41;;;;;;;;;4.75;1.00;;;;;;;;5063019;28;61905;-83
2022/10/25 05:14:06;;;;;;;;;2.00;1.00;;;;;;;;5063633;28;61731;-83
2022/10/25 05:16:33;;;;;;;;;1.00;1.00;;;;;;;;5063546;28;61999;-82
2022/10/25 05:19:00;;;;;;;;;2.00;1.00;;;;;;;;5062904;28;62896;-82
2022/10/25 05:21:27;;;;;;;;;1.00;0.00;;;;;;;;5045330;28;62002;-81
2022/10/25 05:23:52;;;;;;;;;1.00;1.00;;;;;;;;5045332;28;62199;-82
2022/10/25 05:26:18;;;;;;;;;4.75;3.00;;;;;;;;5063485;28;61972;-81
2022/10/25 05:28:45;;;;;;;;;2.00;1.00;;;;;;;;5044858;28;64873;-81
2022/10/25 05:31:14;;;;;;;;;4.25;1.25;;;;;;;;5062723;28;61886;-81
2022/10/25 05:33:40;;;;;;;;;3.00;2.00;;;;;;;;5063109;28;61665;-81
2022/10/25 05:36:05;;;;;;;;;2.75;2.00;;;;;;;;5045185;28;62204;-82
2022/10/25 05:38:31;;;;;;;;;0.75;0.75;;;;;;;;5062540;28;61992;-82
2022/10/25 05:40:57;;;;;;;;;3.75;1.75;;;;;;;;5063251;28;61787;-82
2022/10/25 05:43:23;;;;;;;;;2.00;1.00;;;;;;;;5063258;28;61691;-82
2022/10/25 05:45:49;;;;;;;;;1.50;1.50;;;;;;;;5044892;28;61715;-82
2022/10/25 05:48:14;;;;;;;;;3.00;1.00;;;;;;;;5044531;28;63734;-82
2022/10/25 05:50:40;;;;;;;;;1.50;1.00;;;;;;;;5063103;28;61984;-82
2022/10/25 05:53:05;;;;;;;;;3.75;1.00;;;;;;;;5062745;28;62190;-86
2022/10/25 05:55:32;;;;;;;;;1.00;1.00;;;;;;;;5063168;28;61797;-86
2022/10/25 05:57:58;;;;;;;;;1.75;1.00;;;;;;;;5053138;28;61781;-82
2022/10/25 06:00:23;;;;;;;;;3.00;1.00;;;;;;;;5023897;28;61636;-81
2022/10/25 06:02:49;;;;;;;;;1.00;1.00;;;;;;;;5034924;28;61979;-86
2022/10/25 06:05:20;;;;;;;;;2.75;1.00;;;;;;;;5024386;28;62013;-82
2022/10/25 06:07:46;;;;;;;;;2.25;1.00;;;;;;;;5041644;28;61895;-81
2022/10/25 06:10:11;;;;;;;;;4.00;1.25;;;;;;;;5028666;28;62158;-80
2022/10/25 06:12:37;;;;;;;;;2.00;2.00;;;;;;;;5023929;28;62098;-81
2022/10/25 06:15:03;;;;;;;;;2.75;2.75;;;;;;;;5024189;28;61929;-81
2022/10/25 06:17:28;;;;;;;;;3.00;2.00;;;;;;;;5021987;28;63613;-82
2022/10/25 06:19:54;;;;;;;;;2.00;2.00;;;;;;;;5041804;28;62064;-81
2022/10/25 06:22:19;;;;;;;;;2.00;2.00;;;;;;;;5023603;28;61874;-81
2022/10/25 06:24:44;;;;;;;;;3.25;1.00;;;;;;;;5023943;28;62229;-81
2022/10/25 06:27:10;;;;;;;;;1.25;0.00;;;;;;;;5041000;28;62807;-82
2022/10/25 06:29:35;;;;;;;;;4.00;1.00;;;;;;;;5023540;28;61953;-81
2022/10/25 06:32:01;;;;;;;;;2.25;2.00;;;;;;;;5041257;28;62127;-81
2022/10/25 06:34:26;;;;;;;;;2.00;2.00;;;;;;;;5041813;28;62035;-82
2022/10/25 06:36:51;;;;;;;;;2.75;2.75;;;;;;;;5022484;28;63496;-81
2022/10/25 06:39:16;;;;;;;;;0.50;0.50;;;;;;;;5041901;28;61871;-79
2022/10/25 06:41:42;;;;;;;;;2.00;1.50;;;;;;;;5023846;28;62388;-81
2022/10/25 06:44:07;;;;;;;;;1.00;0.75;;;;;;;;5023432;28;61978;-80
2022/10/25 06:46:34;;;;;;;;;0.00;0.00;;;;;;;;5040183;28;61945;-79
2022/10/25 06:49:00;;;;;;;;;0.50;0.50;;;;;;;;5040873;28;61810;-80
2022/10/25 06:51:27;;;;;;;;;2.00;1.00;;;;;;;;5023093;28;61816;-81
2022/10/25 06:53:54;;;;;;;;;0.00;0.00;;;;;;;;5040868;28;61953;-82
2022/10/25 06:56:19;;;;;;;;;1.00;1.00;;;;;;;;5040266;28;62025;-81
2022/10/25 06:58:44;;;;;;;;;3.00;0.75;;;;;;;;5039934;28;61759;-84
2022/10/25 07:01:11;;;;;;;;;2.50;2.00;;;;;;;;5022599;28;61818;-82
2022/10/25 07:03:36;;;;;;;;;1.00;1.00;;;;;;;;5040614;28;61975;-83
2022/10/25 07:06:02;;;;;;;;;4.00;1.00;;;;;;;;5040426;28;62795;-82
2022/10/25 07:08:27;;;;;;;;;1.75;1.75;;;;;;;;5040772;28;61817;-82
2022/10/25 07:10:53;;;;;;;;;2.25;1.00;;;;;;;;5043456;28;61813;-87
2022/10/25 07:13:19;;;;;;;;;2.50;2.00;;;;;;;;5044279;28;61809;-85
2022/10/25 07:15:47;;;;;;;;;2.75;2.00;;;;;;;;5025624;28;64891;-86
2022/10/25 07:18:12;;;;;;;;;4.25;2.00;;;;;;;;5044628;28;61818;-85
2022/10/25 07:20:37;;;;;;;;;2.00;2.00;;;;;;;;5026233;28;61993;-84
2022/10/25 07:23:03;;;;;;;;;1.75;1.00;;;;;;;;5044585;28;61879;-85
2022/10/25 07:25:29;;;;;;;;;2.00;2.00;;;;;;;;5026284;28;63704;-87
2022/10/25 07:27:57;;;;;;;;;1.00;1.00;;;;;;;;5026820;28;62870;-86
2022/10/25 07:30:22;;;;;;;;;3.75;1.00;;;;;;;;5044140;28;61909;-88
2022/10/25 07:32:48;;;;;;;;;1.00;1.00;;;;;;;;5044275;28;61905;-88
2022/10/25 07:35:15;;;;;;;;;1.00;1.00;;;;;;;;5026719;28;64564;-87
2022/10/25 07:37:41;;;;;;;;;1.00;0.75;;;;;;;;5027087;28;62003;-88
2022/10/25 07:40:06;;;;;;;;;0.00;0.00;;;;;;;;5026160;28;61792;-89
2022/10/25 07:42:31;;;;;;;;;0.75;0.75;;;;;;;;5026231;28;61846;-84
2022/10/25 07:45:38;;;;;;;;;1.75;0.25;;;;;;;;5025375;28;63431;-88
2022/10/25 07:48:04;;;;;;;;;1.00;1.00;;;;;;;;5025498;28;62355;-89
2022/10/25 07:50:29;;;;;;;;;2.75;2.75;;;;;;;;5025737;28;61914;-89
2022/10/25 07:53:10;;;;;;;;;1.50;1.00;;;;;;;;5025305;28;62325;-89
2022/10/25 07:55:35;;;;;;;;;2.00;0.25;;;;;;;;5039138;28;62990;-80
2022/10/25 07:58:05;;;;;;;;;3.50;2.00;;;;;;;;5043759;28;61927;-82
2022/10/25 08:00:31;;;;;;;;;4.00;2.00;;;;;;;;5044398;28;61883;-80
2022/10/25 08:02:56;;;;;;;;;2.00;2.00;;;;;;;;5043849;28;62111;-82
2022/10/25 08:05:22;;;;;;;;;2.33;1.67;;;;;;;;5042847;28;62604;-81
2022/10/25 08:07:53;;;;;;;;;1.25;1.00;;;;;;;;5043464;28;61782;-88
2022/10/25 08:10:19;;;;;;;;;3.00;2.00;;;;;;;;5025238;28;62005;-86
2022/10/25 08:12:45;;;;;;;;;3.00;2.00;;;;;;;;5043477;28;61872;-83
2022/10/25 08:15:10;;;;;;;;;3.50;0.25;;;;;;;;5042760;28;61801;-81
2022/10/25 08:17:35;;;;;;;;;4.00;1.00;;;;;;;;5043876;28;62125;-83
2022/10/25 08:20:01;;;;;;;;;4.00;4.00;;;;;;;;5024816;28;61965;-81
2022/10/25 08:22:44;;;;;;;;;6.25;2.00;;;;;;;;5025966;28;61854;-83
2022/10/25 08:25:10;;;;;;;;;1.00;1.00;;;;;;;;5026728;28;65015;-83
2022/10/25 08:27:35;;;;;;;;;0.75;0.75;;;;;;;;5043717;28;61917;-82
2022/10/25 08:30:00;;;;;;;;;1.00;1.00;;;;;;;;5026039;28;62005;-81
2022/10/25 08:32:25;;;;;;;;;1.50;1.00;;;;;;;;5043703;28;62049;-83
2022/10/25 08:34:51;;;;;;;;;3.33;2.00;;;;;;;;5043563;28;62831;-81
2022/10/25 08:37:16;;;;;;;;;5.00;2.00;;;;;;;;5039596;28;61834;-79
2022/10/25 08:39:43;;;;;;;;;2.00;2.00;;;;;;;;5037663;28;61988;-83
2022/10/25 08:42:13;;;;;;;;;1.75;1.00;;;;;;;;5025848;28;62198;-82
2022/10/25 08:44:39;;;;;;;;;2.50;1.75;;;;;;;;5043468;28;61945;-82
2022/10/25 08:47:26;;;;;;;;;1.50;0.50;;;;;;;;5042730;28;61944;-80
2022/10/25 08:49:54;;;;;;;;;2.00;1.00;;;;;;;;5041297;28;61752;-79
2022/10/25 08:52:40;;;;;;;;;0.00;0.00;;;;;;;;5043806;28;61828;-82
2022/10/25 08:55:12;;;;;;;;;1.00;1.00;;;;;;;;5042509;28;63132;-84
2022/10/25 08:57:40;;;;;;;;;1.00;1.00;;;;;;;;5043613;28;61660;-81
2022/10/25 09:00:09;;;;;;;;;0.00;0.00;;;;;;;;5025568;28;61705;-82
2022/10/25 09:02:35;;;;;;;;;2.25;1.00;;;;;;;;5043221;28;61893;-81
2022/10/25 09:05:00;;;;;;;;;1.00;1.00;;;;;;;;5023869;28;63821;-82
2022/10/25 09:07:41;;;;;;;;;0.00;0.00;;;;;;;;5041273;28;61910;-83
2022/10/25 09:10:21;;;;;;;;;2.00;0.50;;;;;;;;5041743;28;62269;-81
2022/10/25 09:13:06;;;;;;;;;0.25;0.25;;;;;;;;5042333;28;62242;-85
2022/10/25 09:15:53;;;;;;;;;2.75;2.00;;;;;;;;5026070;28;63790;-85
2022/10/25 09:18:22;;;;;;;;;1.00;1.00;;;;;;;;5024721;28;61815;-84
2022/10/25 09:20:49;;;;;;;;;1.00;0.00;;;;;;;;5024749;28;61949;-85
2022/10/25 09:23:21;;;;;;;;;0.00;0.00;;;;;;;;5024828;28;62357;-86
2022/10/25 09:26:04;;;;;;;;;1.50;1.50;;;;;;;;5042028;28;62072;-85
2022/10/25 09:28:48;;;;;;;;;1.00;0.25;;;;;;;;5022856;28;62047;-87
2022/10/25 09:31:15;;;;;;;;;1.00;1.00;;;;;;;;5040421;28;61879;-86
2022/10/25 09:33:43;;;;;;;;;1.00;0.00;;;;;;;;5024559;28;62281;-80
2022/10/25 09:36:10;;;;;;;;;0.75;0.00;;;;;;;;5041370;28;62046;-80
2022/10/25 09:38:39;;;;;;;;;1.67;0.33;;;;;;;;5042182;28;61978;-81
2022/10/25 09:41:09;;;;;;;;;0.00;0.00;;;;;;;;5042550;28;61961;-81
2022/10/25 09:43:38;;;;;;;;;1.00;1.00;;;;;;;;5025080;28;62140;-81
2022/10/25 09:46:12;;;;;;;;;0.00;0.00;;;;;;;;5041250;28;62955;-81
2022/10/25 09:48:56;;;;;;;;;1.25;0.00;;;;;;;;5042288;28;61915;-80
2022/10/25 09:51:35;;;;;;;;;0.00;0.00;;;;;;;;5041780;28;61723;-80
2022/10/25 09:54:04;;;;;;;;;1.25;0.75;;;;;;;;5024659;28;62156;-80
2022/10/25 09:56:29;;;;;;;;;1.25;0.00;;;;;;;;5041889;28;63018;-81
2022/10/25 09:58:55;;;;;;;;;2.00;0.00;;;;;;;;5042590;28;61842;-80
2022/10/25 10:01:25;;;;;;;;;0.00;0.00;;;;;;;;5024524;28;61953;-81
2022/10/25 10:03:51;;;;;;;;;0.00;0.00;;;;;;;;5042948;28;61735;-81
2022/10/25 10:06:25;;;;;;;;;0.00;0.00;;;;;;;;5025641;28;63743;-81
2022/10/25 10:08:58;;;;;;;;;0.25;0.00;;;;;;;;5041168;28;61826;-81
2022/10/25 10:11:24;;;;;;;;;0.00;0.00;;;;;;;;5042413;28;61802;-81
2022/10/25 10:13:52;;;;;;;;;0.00;0.00;;;;;;;;5041449;28;62163;-81
2022/10/25 10:16:27;;;;;;;;;1.00;0.00;;;;;;;;5040785;28;64761;-81
2022/10/25 10:19:11;;;;;;;;;0.00;0.00;;;;;;;;5040558;28;61925;-80
2022/10/25 10:21:40;;;;;;;;;2.25;0.00;;;;;;;;5041899;28;61956;-81
2022/10/25 10:24:05;;;;;;;;;1.00;0.00;;;;;;;;5042063;28;62057;-81
2022/10/25 10:26:31;;;;;;;;;2.00;0.67;;;;;;;;5041230;28;61868;-81
2022/10/25 10:29:02;;;;;;;;;0.00;0.00;;;;;;;;5040543;28;61903;-81
2022/10/25 10:31:33;;;;;;;;;3.00;0.00;;;;;;;;5042120;28;62061;-81
2022/10/25 10:33:58;;;;;;;;;2.00;0.00;;;;;;;;5040794;28;61762;-81
2022/10/25 10:36:26;;;;;;;;;0.33;0.00;;;;;;;;5039052;28;63665;-81
2022/10/25 10:38:51;;;;;;;;;0.00;0.00;;;;;;;;5041914;28;61956;-82
2022/10/25 10:41:27;;;;;;;;;1.33;0.00;;;;;;;;5041616;28;62116;-82
2022/10/25 10:44:06;;;;;;;;;0.00;0.00;;;;;;;;5041072;28;61844;-81
2022/10/25 10:46:32;;;;;;;;;1.33;0.33;;;;;;;;5044410;28;61779;-81
2022/10/25 10:48:57;;;;;;;;;0.00;0.00;;;;;;;;5043754;28;61913;-82
2022/10/25 10:51:34;;;;;;;;;1.00;0.00;;;;;;;;5045001;28;61791;-81
2022/10/25 10:54:13;;;;;;;;;2.67;0.00;;;;;;;;5044165;28;61822;-81
2022/10/25 10:56:38;;;;;;;;;2.00;1.00;;;;;;;;5043175;28;63847;-81
2022/10/25 10:59:04;;;;;;;;;0.00;0.00;;;;;;;;5043847;28;61802;-82
2022/10/25 11:01:32;;;;;;;;;0.00;0.00;;;;;;;;5043830;28;61803;-82
2022/10/25 11:03:58;;;;;;;;;0.33;0.33;;;;;;;;5045385;28;61778;-81
2022/10/25 11:06:25;;;;;;;;;0.00;0.00;;;;;;;;5046167;28;65272;-81
2022/10/25 11:09:05;;;;;;;;;2.00;1.00;;;;;;;;5065279;28;61876;-81
2022/10/25 11:11:30;;;;;;;;;1.00;0.00;;;;;;;;5065235;28;61860;-81
2022/10/25 11:13:56;;;;;;;;;0.00;0.00;;;;;;;;5047115;28;61954;-81
2022/10/25 11:16:40;;;;;;;;;1.00;0.00;;;;;;;;5045600;28;64127;-80
2022/10/25 11:19:13;;;;;;;;;0.67;0.67;;;;;;;;5064783;28;62136;-81
2022/10/25 11:21:44;;;;;;;;;0.33;0.33;;;;;;;;5065185;28;61966;-81
2022/10/25 11:24:10;;;;;;;;;1.00;1.00;;;;;;;;5047106;28;61850;-80
2022/10/25 11:26:53;;;;;;;;;0.00;0.00;;;;;;;;5064012;28;61754;-81
2022/10/25 11:29:29;;;;;;;;;0.67;0.00;;;;;;;;5046759;28;61744;-81
2022/10/25 11:32:05;;;;;;;;;0.00;0.00;;;;;;;;5064858;28;61991;-81
2022/10/25 11:34:42;;;;;;;;;0.00;0.00;;;;;;;;5064204;28;61800;-81
2022/10/25 11:37:16;;;;;;;;;0.67;0.67;;;;;;;;5063475;28;62689;-79
2022/10/25 11:39:50;;;;;;;;;1.33;1.00;;;;;;;;5046597;28;62016;-81
2022/10/25 11:42:30;;;;;;;;;2.67;1.67;;;;;;;;5064326;28;61837;-80
2022/10/25 11:44:55;;;;;;;;;0.00;0.00;;;;;;;;5065105;28;61800;-80
2022/10/25 11:47:44;;;;;;;;;2.00;0.00;;;;;;;;5045141;28;65042;-78
2022/10/25 11:50:15;;;;;;;;;0.67;0.00;;;;;;;;5020710;28;61966;-78
2022/10/25 11:53:09;;;;;;;;;0.67;0.00;;;;;;;;5043462;28;61838;-80
2022/10/25 11:55:39;;;;;;;;;0.33;0.33;;;;;;;;5025576;28;62132;-80
2022/10/25 11:58:23;;;;;;;;;1.33;0.33;;;;;;;;5043169;28;62852;-87
2022/10/25 12:00:57;;;;;;;;;1.00;1.00;;;;;;;;5043226;28;61866;-82
2022/10/25 12:03:29;;;;;;;;;2.33;0.67;;;;;;;;5025306;28;61942;-82
2022/10/25 12:05:55;;;;;;;;;1.67;0.00;;;;;;;;5041129;28;61981;-81
2022/10/25 12:08:27;;;;;;;;;1.67;1.00;;;;;;;;5025374;28;64864;-81
2022/10/25 12:11:02;;;;;;;;;1.00;0.00;;;;;;;;5041209;28;61916;-81
2022/10/25 12:13:30;;;;;;;;;0.67;0.33;;;;;;;;5043734;28;61773;-83
2022/10/25 12:15:57;;;;;;;;;0.67;0.67;;;;;;;;5044505;28;61822;-83
2022/10/25 12:18:22;;;;;;;;;2.00;0.67;;;;;;;;5042076;28;61786;-82
2022/10/25 12:20:48;;;;;;;;;1.00;1.00;;;;;;;;5043550;28;61711;-84
2022/10/25 12:23:16;;;;;;;;;0.00;0.00;;;;;;;;5043867;28;62021;-84
2022/10/25 12:25:47;;;;;;;;;2.00;2.00;;;;;;;;5045854;28;61687;-82
2022/10/25 12:28:20;;;;;;;;;1.67;1.67;;;;;;;;5026851;28;64128;-83
2022/10/25 12:30:47;;;;;;;;;1.33;1.00;;;;;;;;5025215;28;62002;-81
2022/10/25 12:33:12;;;;;;;;;1.00;1.00;;;;;;;;5042947;28;61723;-81
2022/10/25 12:35:47;;;;;;;;;1.00;1.00;;;;;;;;5043754;28;61760;-80
2022/10/25 12:38:16;;;;;;;;;1.00;0.67;;;;;;;;5025098;28;63627;-81
2022/10/25 12:40:44;;;;;;;;;1.00;1.00;;;;;;;;5025422;28;61872;-81
2022/10/25 12:43:30;;;;;;;;;1.67;1.00;;;;;;;;5043744;28;61897;-80
2022/10/25 12:46:18;;;;;;;;;1.33;1.33;;;;;;;;5042931;28;61819;-80
2022/10/25 12:48:46;;;;;;;;;3.00;1.00;;;;;;;;4925384;28;64060;-81
2022/10/25 12:51:38;;;;;;;;;1.67;0.67;;;;;;;;4926284;28;62081;-80
2022/10/25 12:54:19;;;;;;;;;1.00;1.00;;;;;;;;4921255;28;61759;-81
2022/10/25 12:57:03;;;;;;;;;0.67;0.67;;;;;;;;4906443;28;61905;-81
2022/10/25 12:59:31;;;;;;;;;1.00;0.67;;;;;;;;4921358;28;61991;-81
2022/10/25 13:02:15;;;;;;;;;2.67;2.00;;;;;;;;4906387;28;61860;-82
2022/10/25 13:04:46;;;;;;;;;0.67;0.67;;;;;;;;4922633;28;62079;-83
2022/10/25 13:07:13;;;;;;;;;1.67;0.67;;;;;;;;4935288;28;62117;-81
2022/10/25 13:09:38;;;;;;;;;1.00;0.00;;;;;;;;4927425;28;62001;-83
2022/10/25 13:12:04;;;;;;;;;1.33;0.33;;;;;;;;4922757;28;61887;-82
2022/10/25 13:14:29;;;;;;;;;1.00;0.00;;;;;;;;4923097;28;61969;-83
2022/10/25 13:17:29;;;;;;;;;3.67;0.67;;;;;;;;4921977;28;62233;-80
2022/10/25 13:20:14;;;;;;;;;2.00;1.00;;;;;;;;4863885;29;63730;-83
2022/10/25 13:22:39;;;;;;;;;3.33;3.33;;;;;;;;4864186;29;61909;-83
2022/10/25 13:25:08;;;;;;;;;0.00;0.00;;;;;;;;4866900;29;61946;-83
2022/10/25 13:27:34;;;;;;;;;1.00;1.00;;;;;;;;4865240;29;62224;-82
2022/10/25 13:30:02;;;;;;;;;1.00;1.00;;;;;;;;4860235;28;64793;-83
2022/10/25 13:32:34;;;;;;;;;1.00;0.00;;;;;;;;4943195;28;62648;-83
2022/10/25 13:35:02;;;;;;;;;2.67;1.00;;;;;;;;4943600;28;61980;-83
2022/10/25 13:37:30;;;;;;;;;2.00;1.00;;;;;;;;4961128;28;62029;-83
2022/10/25 13:40:15;;;;;;;;;2.00;1.00;;;;;;;;4959695;28;61821;-83
2022/10/25 13:42:42;;;;;;;;;1.00;1.00;;;;;;;;4943948;28;62232;-83
2022/10/25 13:45:08;;;;;;;;;2.67;1.67;;;;;;;;4960858;28;62135;-83
2022/10/25 13:47:33;;;;;;;;;2.33;2.33;;;;;;;;4961261;28;62143;-83
2022/10/25 13:49:59;;;;;;;;;1.33;1.33;;;;;;;;4944057;28;63641;-83
2022/10/25 13:52:30;;;;;;;;;4.67;1.67;;;;;;;;4961337;28;62238;-83
2022/10/25 13:54:56;;;;;;;;;1.00;1.00;;;;;;;;5026085;28;62131;-83
2022/10/25 13:57:40;;;;;;;;;1.67;1.00;;;;;;;;5024767;28;62431;-83
2022/10/25 14:00:27;;;;;;;;;5.00;1.00;;;;;;;;5041773;28;61938;-83
2022/10/25 14:03:05;;;;;;;;;1.67;1.00;;;;;;;;5024186;28;61952;-83
2022/10/25 14:05:49;;;;;;;;;3.33;2.00;;;;;;;;5042647;28;61782;-83
2022/10/25 14:08:23;;;;;;;;;3.33;2.00;;;;;;;;5024301;28;61762;-82
2022/10/25 14:10:49;;;;;;;;;4.00;1.33;;;;;;;;5061791;28;62519;-83
2022/10/25 14:13:29;;;;;;;;;1.67;1.67;;;;;;;;5043527;28;61934;-83
2022/10/25 14:15:59;;;;;;;;;1.33;1.33;;;;;;;;5062239;28;61739;-83
2022/10/25 14:18:26;;;;;;;;;5.00;1.00;;;;;;;;5061220;28;61817;-82
2022/10/25 14:20:54;;;;;;;;;1.67;0.67;;;;;;;;5043272;28;63860;-83
2022/10/25 14:23:21;;;;;;;;;0.00;0.00;;;;;;;;5062390;28;61701;-83
2022/10/25 14:25:52;;;;;;;;;0.67;0.67;;;;;;;;5062106;28;61612;-83
2022/10/25 14:28:20;;;;;;;;;1.33;1.33;;;;;;;;5044152;28;61768;-83
2022/10/25 14:30:46;;;;;;;;;0.67;0.67;;;;;;;;5061535;28;63185;-82
2022/10/25 14:33:32;;;;;;;;;0.00;0.00;;;;;;;;5062187;28;61899;-83
2022/10/25 14:35:57;;;;;;;;;1.00;1.00;;;;;;;;5061865;28;61930;-83
2022/10/25 14:38:23;;;;;;;;;1.00;1.00;;;;;;;;5062578;28;62088;-83
2022/10/25 14:40:56;;;;;;;;;2.67;1.00;;;;;;;;5043451;28;65112;-83
2022/10/25 14:43:40;;;;;;;;;2.00;1.00;;;;;;;;5061887;28;61739;-82
2022/10/25 14:46:05;;;;;;;;;1.00;1.00;;;;;;;;5062036;28;61671;-83
2022/10/25 14:48:31;;;;;;;;;0.67;0.67;;;;;;;;5061883;28;61720;-83
2022/10/25 14:50:59;;;;;;;;;2.00;1.00;;;;;;;;5043395;28;63919;-83
2022/10/25 14:53:25;;;;;;;;;1.00;1.00;;;;;;;;5061848;28;61850;-83
2022/10/25 14:55:56;;;;;;;;;5.33;2.00;;;;;;;;5043486;28;61833;-82